sensor_id;sensor_type;location;lat;lon;timestamp;P1;durP1;ratioP1;P2;durP2;ratioP2
39918;SDS011;25589;51.552;13.424;2023-04-29T00:00:38;9.32;;;8.00;;
39918;SDS011;25589;51.552;13.424;2023-04-29T00:03:03;12.57;;;8.77;;
39918;SDS011;25589;51.552;13.424;2023-04-29T00:05:29;12.07;;;8.23;;
39918;SDS011;25589;51.552;13.424;2023-04-29T00:07:55;9.88;;;8.30;;
39918;SDS011;25589;51.552;13.424;2023-04-29T00:10:21;9.95;;;8.60;;
39918;SDS011;25589;51.552;13.424;2023-04-29T00:12:47;9.55;;;8.00;;
39918;SDS011;25589;51.552;13.424;2023-04-29T00:15:13;11.20;;;9.13;;
39918;SDS011;25589;51.552;13.424;2023-04-29T00:17:39;10.80;;;8.07;;
39918;SDS011;25589;51.552;13.424;2023-04-29T00:20:05;10.98;;;8.35;;
39918;SDS011;25589;51.552;13.424;2023-04-29T00:22:32;9.02;;;8.07;;
39918;SDS011;25589;51.552;13.424;2023-04-29T00:24:57;12.50;;;9.02;;
39918;SDS011;25589;51.552;13.424;2023-04-29T00:27:23;10.85;;;8.38;;
39918;SDS011;25589;51.552;13.424;2023-04-29T00:29:50;12.15;;;8.02;;
39918;SDS011;25589;51.552;13.424;2023-04-29T00:32:15;10.80;;;8.23;;
39918;SDS011;25589;51.552;13.424;2023-04-29T00:34:41;10.48;;;9.20;;
39918;SDS011;25589;51.552;13.424;2023-04-29T00:37:07;9.38;;;8.13;;
39918;SDS011;25589;51.552;13.424;2023-04-29T00:39:33;10.35;;;8.15;;
39918;SDS011;25589;51.552;13.424;2023-04-29T00:41:58;10.32;;;8.30;;
39918;SDS011;25589;51.552;13.424;2023-04-29T00:44:24;10.63;;;7.97;;
39918;SDS011;25589;51.552;13.424;2023-04-29T00:46:50;8.73;;;7.82;;
39918;SDS011;25589;51.552;13.424;2023-04-29T00:49:15;8.90;;;7.45;;
39918;SDS011;25589;51.552;13.424;2023-04-29T00:51:41;10.52;;;7.72;;
39918;SDS011;25589;51.552;13.424;2023-04-29T00:54:08;10.13;;;8.00;;
39918;SDS011;25589;51.552;13.424;2023-04-29T00:56:35;9.95;;;7.82;;
39918;SDS011;25589;51.552;13.424;2023-04-29T00:59:03;11.35;;;8.07;;
39918;SDS011;25589;51.552;13.424;2023-04-29T01:01:29;8.98;;;7.95;;
39918;SDS011;25589;51.552;13.424;2023-04-29T01:03:55;10.98;;;7.85;;
39918;SDS011;25589;51.552;13.424;2023-04-29T01:09:37;9.05;;;7.00;;
39918;SDS011;25589;51.552;13.424;2023-04-29T01:12:05;9.45;;;7.25;;
39918;SDS011;25589;51.552;13.424;2023-04-29T01:14:38;10.18;;;7.55;;
39918;SDS011;25589;51.552;13.424;2023-04-29T01:17:10;9.82;;;7.95;;
39918;SDS011;25589;51.552;13.424;2023-04-29T01:19:54;9.93;;;7.82;;
39918;SDS011;25589;51.552;13.424;2023-04-29T01:22:21;11.95;;;7.85;;
39918;SDS011;25589;51.552;13.424;2023-04-29T01:24:47;12.77;;;8.02;;
39918;SDS011;25589;51.552;13.424;2023-04-29T01:32:59;12.67;;;9.00;;
39918;SDS011;25589;51.552;13.424;2023-04-29T01:35:51;11.13;;;7.68;;
39918;SDS011;25589;51.552;13.424;2023-04-29T01:41:24;10.75;;;9.05;;
39918;SDS011;25589;51.552;13.424;2023-04-29T01:43:49;14.98;;;9.27;;
39918;SDS011;25589;51.552;13.424;2023-04-29T01:46:22;12.18;;;8.68;;
39918;SDS011;25589;51.552;13.424;2023-04-29T01:48:53;12.65;;;9.82;;
39918;SDS011;25589;51.552;13.424;2023-04-29T01:51:19;11.98;;;9.43;;
39918;SDS011;25589;51.552;13.424;2023-04-29T01:53:45;11.65;;;9.10;;
39918;SDS011;25589;51.552;13.424;2023-04-29T01:56:11;16.40;;;9.00;;
39918;SDS011;25589;51.552;13.424;2023-04-29T01:58:57;13.63;;;9.00;;
39918;SDS011;25589;51.552;13.424;2023-04-29T02:01:32;12.50;;;9.15;;
39918;SDS011;25589;51.552;13.424;2023-04-29T02:03:58;12.82;;;8.80;;
39918;SDS011;25589;51.552;13.424;2023-04-29T02:06:24;11.10;;;8.57;;
39918;SDS011;25589;51.552;13.424;2023-04-29T02:08:54;11.73;;;9.02;;
39918;SDS011;25589;51.552;13.424;2023-04-29T02:11:20;11.23;;;8.98;;
39918;SDS011;25589;51.552;13.424;2023-04-29T02:13:46;10.65;;;8.05;;
39918;SDS011;25589;51.552;13.424;2023-04-29T02:16:13;10.55;;;8.95;;
39918;SDS011;25589;51.552;13.424;2023-04-29T02:18:44;8.52;;;7.13;;
39918;SDS011;25589;51.552;13.424;2023-04-29T02:21:10;12.48;;;8.50;;
39918;SDS011;25589;51.552;13.424;2023-04-29T02:23:36;11.00;;;8.38;;
39918;SDS011;25589;51.552;13.424;2023-04-29T02:26:02;10.30;;;9.02;;
39918;SDS011;25589;51.552;13.424;2023-04-29T02:28:30;11.65;;;8.00;;
39918;SDS011;25589;51.552;13.424;2023-04-29T02:30:56;10.85;;;8.50;;
39918;SDS011;25589;51.552;13.424;2023-04-29T02:33:21;10.68;;;7.95;;
39918;SDS011;25589;51.552;13.424;2023-04-29T02:35:47;10.95;;;7.80;;
39918;SDS011;25589;51.552;13.424;2023-04-29T02:38:14;9.50;;;7.63;;
39918;SDS011;25589;51.552;13.424;2023-04-29T02:40:41;9.02;;;7.78;;
39918;SDS011;25589;51.552;13.424;2023-04-29T02:43:08;10.85;;;7.68;;
39918;SDS011;25589;51.552;13.424;2023-04-29T02:45:34;10.60;;;8.38;;
39918;SDS011;25589;51.552;13.424;2023-04-29T02:48:00;10.35;;;8.18;;
39918;SDS011;25589;51.552;13.424;2023-04-29T02:50:25;10.30;;;7.28;;
39918;SDS011;25589;51.552;13.424;2023-04-29T02:52:51;11.02;;;8.02;;
39918;SDS011;25589;51.552;13.424;2023-04-29T02:55:17;9.38;;;8.30;;
39918;SDS011;25589;51.552;13.424;2023-04-29T02:57:43;10.93;;;7.90;;
39918;SDS011;25589;51.552;13.424;2023-04-29T03:00:08;10.68;;;7.43;;
39918;SDS011;25589;51.552;13.424;2023-04-29T03:02:36;11.30;;;8.07;;
39918;SDS011;25589;51.552;13.424;2023-04-29T03:05:02;10.43;;;7.93;;
39918;SDS011;25589;51.552;13.424;2023-04-29T03:07:29;8.75;;;7.53;;
39918;SDS011;25589;51.552;13.424;2023-04-29T03:09:55;10.02;;;7.90;;
39918;SDS011;25589;51.552;13.424;2023-04-29T03:12:21;9.55;;;7.60;;
39918;SDS011;25589;51.552;13.424;2023-04-29T03:14:46;10.02;;;7.38;;
39918;SDS011;25589;51.552;13.424;2023-04-29T03:17:12;7.03;;;6.18;;
39918;SDS011;25589;51.552;13.424;2023-04-29T03:19:38;9.20;;;7.45;;
39918;SDS011;25589;51.552;13.424;2023-04-29T03:22:04;9.20;;;7.22;;
39918;SDS011;25589;51.552;13.424;2023-04-29T03:24:31;8.77;;;7.18;;
39918;SDS011;25589;51.552;13.424;2023-04-29T03:26:57;8.15;;;6.70;;
39918;SDS011;25589;51.552;13.424;2023-04-29T03:29:24;8.60;;;7.10;;
39918;SDS011;25589;51.552;13.424;2023-04-29T03:31:51;8.45;;;6.93;;
39918;SDS011;25589;51.552;13.424;2023-04-29T03:34:18;8.35;;;6.72;;
39918;SDS011;25589;51.552;13.424;2023-04-29T03:36:51;11.45;;;7.45;;
39918;SDS011;25589;51.552;13.424;2023-04-29T03:39:17;8.18;;;7.22;;
39918;SDS011;25589;51.552;13.424;2023-04-29T03:41:43;8.77;;;7.10;;
39918;SDS011;25589;51.552;13.424;2023-04-29T03:44:08;9.73;;;7.57;;
39918;SDS011;25589;51.552;13.424;2023-04-29T03:46:34;11.25;;;6.97;;
39918;SDS011;25589;51.552;13.424;2023-04-29T03:49:00;12.73;;;6.95;;
39918;SDS011;25589;51.552;13.424;2023-04-29T03:51:26;7.60;;;6.75;;
39918;SDS011;25589;51.552;13.424;2023-04-29T03:53:59;12.30;;;7.35;;
39918;SDS011;25589;51.552;13.424;2023-04-29T03:56:26;9.02;;;6.68;;
39918;SDS011;25589;51.552;13.424;2023-04-29T03:58:51;9.95;;;7.05;;
39918;SDS011;25589;51.552;13.424;2023-04-29T04:01:19;9.55;;;6.47;;
39918;SDS011;25589;51.552;13.424;2023-04-29T04:03:45;9.73;;;6.68;;
39918;SDS011;25589;51.552;13.424;2023-04-29T04:06:11;10.57;;;7.88;;
39918;SDS011;25589;51.552;13.424;2023-04-29T04:08:38;10.93;;;7.03;;
39918;SDS011;25589;51.552;13.424;2023-04-29T04:11:18;8.38;;;7.10;;
39918;SDS011;25589;51.552;13.424;2023-04-29T04:13:49;9.95;;;7.47;;
39918;SDS011;25589;51.552;13.424;2023-04-29T04:16:16;9.48;;;7.50;;
39918;SDS011;25589;51.552;13.424;2023-04-29T04:18:41;9.73;;;7.45;;
39918;SDS011;25589;51.552;13.424;2023-04-29T04:21:08;10.40;;;7.57;;
39918;SDS011;25589;51.552;13.424;2023-04-29T04:23:36;9.93;;;7.20;;
39918;SDS011;25589;51.552;13.424;2023-04-29T04:26:06;9.60;;;7.32;;
39918;SDS011;25589;51.552;13.424;2023-04-29T04:28:58;9.50;;;7.13;;
39918;SDS011;25589;51.552;13.424;2023-04-29T04:31:48;11.98;;;7.93;;
39918;SDS011;25589;51.552;13.424;2023-04-29T04:34:16;12.48;;;7.97;;
39918;SDS011;25589;51.552;13.424;2023-04-29T04:36:43;10.27;;;7.45;;
39918;SDS011;25589;51.552;13.424;2023-04-29T04:39:09;10.77;;;7.63;;
39918;SDS011;25589;51.552;13.424;2023-04-29T04:41:35;11.38;;;7.82;;
39918;SDS011;25589;51.552;13.424;2023-04-29T04:44:01;10.57;;;8.00;;
39918;SDS011;25589;51.552;13.424;2023-04-29T04:46:33;9.68;;;7.40;;
39918;SDS011;25589;51.552;13.424;2023-04-29T04:49:11;9.27;;;6.85;;
39918;SDS011;25589;51.552;13.424;2023-04-29T04:51:44;9.68;;;7.90;;
39918;SDS011;25589;51.552;13.424;2023-04-29T04:54:10;11.30;;;7.93;;
39918;SDS011;25589;51.552;13.424;2023-04-29T04:56:36;9.55;;;7.65;;
39918;SDS011;25589;51.552;13.424;2023-04-29T04:59:04;9.25;;;6.70;;
39918;SDS011;25589;51.552;13.424;2023-04-29T05:01:29;11.85;;;8.18;;
39918;SDS011;25589;51.552;13.424;2023-04-29T05:03:55;12.13;;;7.82;;
39918;SDS011;25589;51.552;13.424;2023-04-29T05:06:21;10.60;;;7.88;;
39918;SDS011;25589;51.552;13.424;2023-04-29T05:08:48;9.88;;;7.70;;
39918;SDS011;25589;51.552;13.424;2023-04-29T05:11:15;10.25;;;7.78;;
39918;SDS011;25589;51.552;13.424;2023-04-29T05:13:44;9.98;;;7.55;;
39918;SDS011;25589;51.552;13.424;2023-04-29T05:16:10;9.68;;;8.18;;
39918;SDS011;25589;51.552;13.424;2023-04-29T05:18:40;10.13;;;7.13;;
39918;SDS011;25589;51.552;13.424;2023-04-29T05:21:08;9.40;;;7.57;;
39918;SDS011;25589;51.552;13.424;2023-04-29T05:23:35;10.30;;;7.93;;
39918;SDS011;25589;51.552;13.424;2023-04-29T05:26:00;11.98;;;7.80;;
39918;SDS011;25589;51.552;13.424;2023-04-29T05:28:26;11.70;;;9.18;;
39918;SDS011;25589;51.552;13.424;2023-04-29T05:30:52;10.15;;;8.13;;
39918;SDS011;25589;51.552;13.424;2023-04-29T05:33:17;14.15;;;9.77;;
39918;SDS011;25589;51.552;13.424;2023-04-29T05:35:44;15.00;;;9.80;;
39918;SDS011;25589;51.552;13.424;2023-04-29T05:38:10;14.13;;;9.98;;
39918;SDS011;25589;51.552;13.424;2023-04-29T05:40:40;13.45;;;10.05;;
39918;SDS011;25589;51.552;13.424;2023-04-29T05:43:22;14.93;;;10.43;;
39918;SDS011;25589;51.552;13.424;2023-04-29T05:45:48;14.68;;;10.90;;
39918;SDS011;25589;51.552;13.424;2023-04-29T05:48:14;16.55;;;11.48;;
39918;SDS011;25589;51.552;13.424;2023-04-29T05:50:40;16.10;;;10.90;;
39918;SDS011;25589;51.552;13.424;2023-04-29T05:53:06;17.58;;;11.80;;
39918;SDS011;25589;51.552;13.424;2023-04-29T05:55:33;15.02;;;11.23;;
39918;SDS011;25589;51.552;13.424;2023-04-29T05:57:59;17.52;;;12.50;;
39918;SDS011;25589;51.552;13.424;2023-04-29T06:00:25;19.65;;;12.63;;
39918;SDS011;25589;51.552;13.424;2023-04-29T06:02:56;16.30;;;12.15;;
39918;SDS011;25589;51.552;13.424;2023-04-29T06:05:22;17.33;;;11.98;;
39918;SDS011;25589;51.552;13.424;2023-04-29T06:08:05;17.92;;;12.30;;
39918;SDS011;25589;51.552;13.424;2023-04-29T06:10:42;16.80;;;12.25;;
39918;SDS011;25589;51.552;13.424;2023-04-29T06:13:09;18.38;;;12.23;;
39918;SDS011;25589;51.552;13.424;2023-04-29T06:15:35;18.63;;;13.93;;
39918;SDS011;25589;51.552;13.424;2023-04-29T06:18:00;18.02;;;12.60;;
39918;SDS011;25589;51.552;13.424;2023-04-29T06:20:26;18.33;;;13.18;;
39918;SDS011;25589;51.552;13.424;2023-04-29T06:22:52;18.65;;;13.10;;
39918;SDS011;25589;51.552;13.424;2023-04-29T06:25:17;17.88;;;13.25;;
39918;SDS011;25589;51.552;13.424;2023-04-29T06:27:45;17.17;;;12.70;;
39918;SDS011;25589;51.552;13.424;2023-04-29T06:30:12;19.05;;;12.70;;
39918;SDS011;25589;51.552;13.424;2023-04-29T06:32:38;15.43;;;12.00;;
39918;SDS011;25589;51.552;13.424;2023-04-29T06:35:05;16.95;;;11.93;;
39918;SDS011;25589;51.552;13.424;2023-04-29T06:37:49;16.58;;;11.50;;
39918;SDS011;25589;51.552;13.424;2023-04-29T06:40:31;17.13;;;12.65;;
39918;SDS011;25589;51.552;13.424;2023-04-29T06:43:06;16.20;;;12.57;;
39918;SDS011;25589;51.552;13.424;2023-04-29T06:45:48;18.33;;;13.43;;
39918;SDS011;25589;51.552;13.424;2023-04-29T06:48:23;18.42;;;12.93;;
39918;SDS011;25589;51.552;13.424;2023-04-29T06:50:53;19.00;;;13.35;;
39918;SDS011;25589;51.552;13.424;2023-04-29T06:53:20;17.65;;;12.73;;
39918;SDS011;25589;51.552;13.424;2023-04-29T06:55:46;19.77;;;12.98;;
39918;SDS011;25589;51.552;13.424;2023-04-29T06:58:12;20.65;;;13.85;;
39918;SDS011;25589;51.552;13.424;2023-04-29T07:00:39;17.85;;;13.50;;
39918;SDS011;25589;51.552;13.424;2023-04-29T07:03:05;21.50;;;13.95;;
39918;SDS011;25589;51.552;13.424;2023-04-29T07:05:30;19.77;;;13.85;;
39918;SDS011;25589;51.552;13.424;2023-04-29T07:07:56;23.65;;;13.90;;
39918;SDS011;25589;51.552;13.424;2023-04-29T07:10:23;20.65;;;13.68;;
39918;SDS011;25589;51.552;13.424;2023-04-29T07:12:52;24.33;;;15.02;;
39918;SDS011;25589;51.552;13.424;2023-04-29T07:15:17;20.10;;;14.02;;
39918;SDS011;25589;51.552;13.424;2023-04-29T07:17:43;20.60;;;14.15;;
39918;SDS011;25589;51.552;13.424;2023-04-29T07:20:09;24.60;;;15.18;;
39918;SDS011;25589;51.552;13.424;2023-04-29T07:22:36;19.42;;;13.13;;
39918;SDS011;25589;51.552;13.424;2023-04-29T07:25:02;18.92;;;13.05;;
39918;SDS011;25589;51.552;13.424;2023-04-29T07:27:28;17.73;;;12.00;;
39918;SDS011;25589;51.552;13.424;2023-04-29T07:29:54;22.80;;;12.85;;
39918;SDS011;25589;51.552;13.424;2023-04-29T07:32:19;20.58;;;13.98;;
39918;SDS011;25589;51.552;13.424;2023-04-29T07:34:45;21.40;;;14.20;;
39918;SDS011;25589;51.552;13.424;2023-04-29T07:37:13;22.20;;;14.40;;
39918;SDS011;25589;51.552;13.424;2023-04-29T07:39:39;22.08;;;15.18;;
39918;SDS011;25589;51.552;13.424;2023-04-29T07:42:07;22.92;;;15.68;;
39918;SDS011;25589;51.552;13.424;2023-04-29T07:44:32;22.75;;;15.70;;
39918;SDS011;25589;51.552;13.424;2023-04-29T07:46:58;20.40;;;14.88;;
39918;SDS011;25589;51.552;13.424;2023-04-29T07:49:23;25.88;;;16.17;;
39918;SDS011;25589;51.552;13.424;2023-04-29T07:51:50;23.00;;;14.95;;
39918;SDS011;25589;51.552;13.424;2023-04-29T07:54:15;19.88;;;14.35;;
39918;SDS011;25589;51.552;13.424;2023-04-29T07:56:43;21.67;;;15.02;;
39918;SDS011;25589;51.552;13.424;2023-04-29T07:59:09;21.13;;;13.55;;
39918;SDS011;25589;51.552;13.424;2023-04-29T08:01:35;20.90;;;14.30;;
39918;SDS011;25589;51.552;13.424;2023-04-29T08:04:01;21.00;;;14.85;;
39918;SDS011;25589;51.552;13.424;2023-04-29T08:06:27;22.63;;;14.35;;
39918;SDS011;25589;51.552;13.424;2023-04-29T08:08:52;22.45;;;14.00;;
39918;SDS011;25589;51.552;13.424;2023-04-29T08:11:20;22.98;;;14.65;;
39918;SDS011;25589;51.552;13.424;2023-04-29T08:13:48;21.13;;;14.43;;
39918;SDS011;25589;51.552;13.424;2023-04-29T08:16:15;21.50;;;14.02;;
39918;SDS011;25589;51.552;13.424;2023-04-29T08:18:40;22.80;;;13.82;;
39918;SDS011;25589;51.552;13.424;2023-04-29T08:21:07;22.23;;;14.43;;
39918;SDS011;25589;51.552;13.424;2023-04-29T08:23:35;23.33;;;14.05;;
39918;SDS011;25589;51.552;13.424;2023-04-29T08:26:01;22.65;;;13.38;;
39918;SDS011;25589;51.552;13.424;2023-04-29T08:28:27;21.50;;;14.02;;
39918;SDS011;25589;51.552;13.424;2023-04-29T08:30:53;20.45;;;13.73;;
39918;SDS011;25589;51.552;13.424;2023-04-29T08:33:19;21.98;;;13.77;;
39918;SDS011;25589;51.552;13.424;2023-04-29T08:35:45;18.98;;;13.15;;
39918;SDS011;25589;51.552;13.424;2023-04-29T08:38:10;21.40;;;13.90;;
39918;SDS011;25589;51.552;13.424;2023-04-29T08:40:41;18.83;;;12.27;;
39918;SDS011;25589;51.552;13.424;2023-04-29T08:43:08;19.35;;;13.13;;
39918;SDS011;25589;51.552;13.424;2023-04-29T08:45:34;22.80;;;13.85;;
39918;SDS011;25589;51.552;13.424;2023-04-29T08:48:01;20.60;;;13.43;;
39918;SDS011;25589;51.552;13.424;2023-04-29T08:50:30;21.25;;;13.90;;
39918;SDS011;25589;51.552;13.424;2023-04-29T08:52:56;23.58;;;14.38;;
39918;SDS011;25589;51.552;13.424;2023-04-29T08:55:22;23.20;;;14.30;;
39918;SDS011;25589;51.552;13.424;2023-04-29T08:57:48;21.30;;;13.75;;
39918;SDS011;25589;51.552;13.424;2023-04-29T09:00:18;23.00;;;13.48;;
39918;SDS011;25589;51.552;13.424;2023-04-29T09:02:46;19.20;;;13.65;;
39918;SDS011;25589;51.552;13.424;2023-04-29T09:05:14;19.30;;;13.25;;
39918;SDS011;25589;51.552;13.424;2023-04-29T09:07:40;19.73;;;13.18;;
39918;SDS011;25589;51.552;13.424;2023-04-29T09:10:06;22.23;;;13.85;;
39918;SDS011;25589;51.552;13.424;2023-04-29T09:12:34;19.95;;;12.75;;
39918;SDS011;25589;51.552;13.424;2023-04-29T09:15:00;20.00;;;12.35;;
39918;SDS011;25589;51.552;13.424;2023-04-29T09:22:46;15.25;;;10.80;;
39918;SDS011;25589;51.552;13.424;2023-04-29T09:25:13;13.70;;;9.63;;
39918;SDS011;25589;51.552;13.424;2023-04-29T09:27:39;13.88;;;9.43;;
39918;SDS011;25589;51.552;13.424;2023-04-29T09:30:05;11.43;;;8.48;;
39918;SDS011;25589;51.552;13.424;2023-04-29T09:32:31;12.80;;;8.70;;
39918;SDS011;25589;51.552;13.424;2023-04-29T09:34:57;12.20;;;8.38;;
39918;SDS011;25589;51.552;13.424;2023-04-29T09:37:23;11.15;;;7.95;;
39918;SDS011;25589;51.552;13.424;2023-04-29T09:39:51;11.35;;;8.23;;
39918;SDS011;25589;51.552;13.424;2023-04-29T09:42:17;10.05;;;7.47;;
39918;SDS011;25589;51.552;13.424;2023-04-29T09:44:43;10.40;;;7.63;;
39918;SDS011;25589;51.552;13.424;2023-04-29T09:47:09;11.35;;;8.25;;
39918;SDS011;25589;51.552;13.424;2023-04-29T09:49:42;13.75;;;8.18;;
39918;SDS011;25589;51.552;13.424;2023-04-29T09:52:13;10.93;;;8.15;;
39918;SDS011;25589;51.552;13.424;2023-04-29T09:54:41;12.90;;;8.73;;
39918;SDS011;25589;51.552;13.424;2023-04-29T09:57:08;12.50;;;7.97;;
39918;SDS011;25589;51.552;13.424;2023-04-29T09:59:36;11.07;;;7.40;;
39918;SDS011;25589;51.552;13.424;2023-04-29T10:02:12;11.40;;;7.25;;
39918;SDS011;25589;51.552;13.424;2023-04-29T10:04:39;10.63;;;7.68;;
39918;SDS011;25589;51.552;13.424;2023-04-29T10:07:08;9.35;;;6.68;;
39918;SDS011;25589;51.552;13.424;2023-04-29T10:09:39;11.50;;;7.47;;
39918;SDS011;25589;51.552;13.424;2023-04-29T10:12:04;10.10;;;6.95;;
39918;SDS011;25589;51.552;13.424;2023-04-29T10:14:31;10.35;;;7.25;;
39918;SDS011;25589;51.552;13.424;2023-04-29T10:17:15;11.40;;;7.57;;
39918;SDS011;25589;51.552;13.424;2023-04-29T10:19:46;10.27;;;7.03;;
39918;SDS011;25589;51.552;13.424;2023-04-29T10:22:20;12.45;;;8.00;;
39918;SDS011;25589;51.552;13.424;2023-04-29T10:24:52;12.05;;;8.05;;
39918;SDS011;25589;51.552;13.424;2023-04-29T10:27:19;11.57;;;7.07;;
39918;SDS011;25589;51.552;13.424;2023-04-29T10:29:47;10.30;;;7.30;;
39918;SDS011;25589;51.552;13.424;2023-04-29T10:32:13;34.60;;;9.75;;
39918;SDS011;25589;51.552;13.424;2023-04-29T10:34:40;48.40;;;11.73;;
39918;SDS011;25589;51.552;13.424;2023-04-29T10:37:09;12.25;;;8.07;;
39918;SDS011;25589;51.552;13.424;2023-04-29T10:39:41;8.88;;;6.97;;
39918;SDS011;25589;51.552;13.424;2023-04-29T10:45:16;10.15;;;7.20;;
39918;SDS011;25589;51.552;13.424;2023-04-29T10:48:03;8.10;;;6.68;;
39918;SDS011;25589;51.552;13.424;2023-04-29T10:53:11;10.45;;;8.38;;
39918;SDS011;25589;51.552;13.424;2023-04-29T10:55:38;12.05;;;9.20;;
39918;SDS011;25589;51.552;13.424;2023-04-29T10:58:04;12.90;;;9.70;;
39918;SDS011;25589;51.552;13.424;2023-04-29T11:00:31;11.88;;;8.88;;
39918;SDS011;25589;51.552;13.424;2023-04-29T11:02:58;14.13;;;10.30;;
39918;SDS011;25589;51.552;13.424;2023-04-29T11:08:18;11.60;;;8.80;;
39918;SDS011;25589;51.552;13.424;2023-04-29T11:10:51;14.30;;;9.55;;
39918;SDS011;25589;51.552;13.424;2023-04-29T11:13:22;14.73;;;10.32;;
39918;SDS011;25589;51.552;13.424;2023-04-29T11:15:49;14.35;;;10.35;;
39918;SDS011;25589;51.552;13.424;2023-04-29T11:18:16;13.85;;;10.05;;
39918;SDS011;25589;51.552;13.424;2023-04-29T11:23:29;16.70;;;10.93;;
39918;SDS011;25589;51.552;13.424;2023-04-29T11:25:58;17.48;;;10.60;;
39918;SDS011;25589;51.552;13.424;2023-04-29T11:28:26;15.82;;;10.38;;
39918;SDS011;25589;51.552;13.424;2023-04-29T11:30:52;14.02;;;10.73;;
39918;SDS011;25589;51.552;13.424;2023-04-29T11:33:21;17.17;;;10.57;;
39918;SDS011;25589;51.552;13.424;2023-04-29T11:35:46;16.27;;;10.95;;
39918;SDS011;25589;51.552;13.424;2023-04-29T11:38:12;15.40;;;10.50;;
39918;SDS011;25589;51.552;13.424;2023-04-29T11:40:41;18.52;;;12.65;;
39918;SDS011;25589;51.552;13.424;2023-04-29T11:43:17;19.30;;;10.52;;
39918;SDS011;25589;51.552;13.424;2023-04-29T11:45:46;19.50;;;12.18;;
39918;SDS011;25589;51.552;13.424;2023-04-29T11:48:24;17.70;;;12.05;;
39918;SDS011;25589;51.552;13.424;2023-04-29T11:50:55;18.42;;;10.90;;
39918;SDS011;25589;51.552;13.424;2023-04-29T11:53:23;19.88;;;10.23;;
39918;SDS011;25589;51.552;13.424;2023-04-29T11:55:54;16.92;;;9.70;;
39918;SDS011;25589;51.552;13.424;2023-04-29T11:58:20;17.08;;;10.82;;
39918;SDS011;25589;51.552;13.424;2023-04-29T12:00:47;15.25;;;9.73;;
39918;SDS011;25589;51.552;13.424;2023-04-29T12:03:13;13.55;;;8.60;;
39918;SDS011;25589;51.552;13.424;2023-04-29T12:05:51;15.63;;;9.50;;
39918;SDS011;25589;51.552;13.424;2023-04-29T12:08:24;14.98;;;10.02;;
39918;SDS011;25589;51.552;13.424;2023-04-29T12:10:51;13.45;;;8.98;;
39918;SDS011;25589;51.552;13.424;2023-04-29T12:13:19;15.38;;;9.13;;
39918;SDS011;25589;51.552;13.424;2023-04-29T12:15:46;16.15;;;9.15;;
39918;SDS011;25589;51.552;13.424;2023-04-29T12:18:14;15.77;;;9.35;;
39918;SDS011;25589;51.552;13.424;2023-04-29T12:20:42;17.73;;;8.90;;
39918;SDS011;25589;51.552;13.424;2023-04-29T12:23:11;12.27;;;7.72;;
39918;SDS011;25589;51.552;13.424;2023-04-29T12:28:17;15.27;;;9.55;;
39918;SDS011;25589;51.552;13.424;2023-04-29T12:30:43;17.55;;;9.40;;
39918;SDS011;25589;51.552;13.424;2023-04-29T12:33:23;17.90;;;10.88;;
39918;SDS011;25589;51.552;13.424;2023-04-29T12:35:51;20.23;;;12.13;;
39918;SDS011;25589;51.552;13.424;2023-04-29T12:38:21;21.20;;;11.95;;
39918;SDS011;25589;51.552;13.424;2023-04-29T12:40:48;18.95;;;11.45;;
39918;SDS011;25589;51.552;13.424;2023-04-29T12:43:15;18.65;;;11.75;;
39918;SDS011;25589;51.552;13.424;2023-04-29T12:45:40;21.88;;;13.00;;
39918;SDS011;25589;51.552;13.424;2023-04-29T12:48:06;23.35;;;12.05;;
39918;SDS011;25589;51.552;13.424;2023-04-29T12:50:34;19.80;;;12.38;;
39918;SDS011;25589;51.552;13.424;2023-04-29T12:53:01;21.10;;;13.00;;
39918;SDS011;25589;51.552;13.424;2023-04-29T12:55:28;19.60;;;13.13;;
39918;SDS011;25589;51.552;13.424;2023-04-29T12:57:55;18.30;;;11.48;;
39918;SDS011;25589;51.552;13.424;2023-04-29T13:00:21;19.42;;;12.48;;
39918;SDS011;25589;51.552;13.424;2023-04-29T13:02:47;20.52;;;12.43;;
39918;SDS011;25589;51.552;13.424;2023-04-29T13:05:12;20.92;;;12.88;;
39918;SDS011;25589;51.552;13.424;2023-04-29T13:07:38;19.98;;;12.95;;
39918;SDS011;25589;51.552;13.424;2023-04-29T13:10:04;18.63;;;12.50;;
39918;SDS011;25589;51.552;13.424;2023-04-29T13:12:31;27.95;;;15.43;;
39918;SDS011;25589;51.552;13.424;2023-04-29T13:14:57;22.08;;;14.30;;
39918;SDS011;25589;51.552;13.424;2023-04-29T13:17:22;23.30;;;15.27;;
39918;SDS011;25589;51.552;13.424;2023-04-29T13:19:48;23.98;;;15.43;;
39918;SDS011;25589;51.552;13.424;2023-04-29T13:22:14;26.95;;;15.88;;
39918;SDS011;25589;51.552;13.424;2023-04-29T13:24:40;23.23;;;13.68;;
39918;SDS011;25589;51.552;13.424;2023-04-29T13:27:06;25.52;;;14.75;;
39918;SDS011;25589;51.552;13.424;2023-04-29T13:29:31;34.33;;;20.17;;
39918;SDS011;25589;51.552;13.424;2023-04-29T13:31:57;26.85;;;15.80;;
39918;SDS011;25589;51.552;13.424;2023-04-29T13:34:23;26.27;;;16.05;;
39918;SDS011;25589;51.552;13.424;2023-04-29T13:36:48;23.60;;;15.82;;
39918;SDS011;25589;51.552;13.424;2023-04-29T13:39:14;26.10;;;16.90;;
39918;SDS011;25589;51.552;13.424;2023-04-29T13:41:40;22.75;;;14.38;;
39918;SDS011;25589;51.552;13.424;2023-04-29T13:44:06;23.67;;;15.82;;
39918;SDS011;25589;51.552;13.424;2023-04-29T13:46:31;28.50;;;16.48;;
39918;SDS011;25589;51.552;13.424;2023-04-29T13:48:57;32.28;;;19.08;;
39918;SDS011;25589;51.552;13.424;2023-04-29T13:51:23;32.80;;;19.38;;
39918;SDS011;25589;51.552;13.424;2023-04-29T13:53:48;24.98;;;16.45;;
39918;SDS011;25589;51.552;13.424;2023-04-29T13:56:14;36.70;;;17.77;;
39918;SDS011;25589;51.552;13.424;2023-04-29T13:58:40;22.40;;;15.32;;
39918;SDS011;25589;51.552;13.424;2023-04-29T14:01:06;22.42;;;14.68;;
39918;SDS011;25589;51.552;13.424;2023-04-29T14:03:32;42.05;;;23.75;;
39918;SDS011;25589;51.552;13.424;2023-04-29T14:05:58;24.27;;;16.80;;
39918;SDS011;25589;51.552;13.424;2023-04-29T14:08:23;25.25;;;17.80;;
39918;SDS011;25589;51.552;13.424;2023-04-29T14:10:49;24.27;;;15.77;;
39918;SDS011;25589;51.552;13.424;2023-04-29T14:13:15;26.90;;;15.07;;
39918;SDS011;25589;51.552;13.424;2023-04-29T14:15:41;34.63;;;19.55;;
39918;SDS011;25589;51.552;13.424;2023-04-29T14:18:07;26.52;;;15.73;;
39918;SDS011;25589;51.552;13.424;2023-04-29T14:20:34;26.52;;;15.13;;
39918;SDS011;25589;51.552;13.424;2023-04-29T14:23:00;21.90;;;15.50;;
39918;SDS011;25589;51.552;13.424;2023-04-29T14:25:26;24.88;;;16.15;;
39918;SDS011;25589;51.552;13.424;2023-04-29T14:27:51;25.35;;;14.85;;
39918;SDS011;25589;51.552;13.424;2023-04-29T14:30:17;20.85;;;15.18;;
39918;SDS011;25589;51.552;13.424;2023-04-29T14:32:43;22.77;;;14.70;;
39918;SDS011;25589;51.552;13.424;2023-04-29T14:35:08;26.42;;;17.05;;
39918;SDS011;25589;51.552;13.424;2023-04-29T14:37:35;28.42;;;17.05;;
39918;SDS011;25589;51.552;13.424;2023-04-29T14:40:00;30.55;;;20.05;;
39918;SDS011;25589;51.552;13.424;2023-04-29T14:42:26;23.42;;;14.45;;
39918;SDS011;25589;51.552;13.424;2023-04-29T14:44:51;19.90;;;13.85;;
39918;SDS011;25589;51.552;13.424;2023-04-29T14:47:18;22.27;;;14.45;;
39918;SDS011;25589;51.552;13.424;2023-04-29T14:49:43;20.95;;;14.63;;
39918;SDS011;25589;51.552;13.424;2023-04-29T14:52:09;19.40;;;13.02;;